Combinado, Brazil
Current Conditions -  °F | °C
As of 4:00 AM on Friday 31 Oct 2014 (Local Time) from SBPJ Reporting Station
Broken Clouds Broken Clouds  
Wind Chill: 79°   Ceiling: 9000
Heat Index: 81°   Visibility: 6mi
Dew Point: 68°   Wind: 3mph
Humidity: 69%   Direction: 120°ESE
Pressure: 29.85"   Gusts: NA
Location:  12.79°S, 46.54°W
Report Text: SBPJ 310700Z 12003KT 9999 SCT017 BKN090 26/20 Q1011
Loading
Personal Weather Stations






























Interactive Weather Map
Tropical Storm Tracking
New forecast layout! Learn more

10-Day Weather Forecast

Advertisements
Track Severe Weather on mobile